Time;durP1;ratioP1;P1;durP2;ratioP2;P2;SDS_P1;SDS_P2;PMS_P1;PMS_P2;Temp;Humidity;BMP_temperature;BMP_pressure;BME280_temperature;BME280_humidity;BME280_pressure;Samples;Min_cycle;Max_cycle;Signal;HPM_P1;HPM_P2
2022/07/19 00:01:31;;;;;;;5.70;3.30;;;;;;;;;;21254586;27;20372;-58
2022/07/19 00:11:32;;;;;;;12.07;5.03;;;;;;;;;;21252088;27;20075;-61
2022/07/19 00:21:34;;;;;;;12.43;4.18;;;;;;;;;;21252056;27;20046;-57
2022/07/19 00:31:36;;;;;;;5.28;2.85;;;;;;;;;;21251021;27;20099;-65
2022/07/19 00:41:42;;;;;;;8.80;2.75;;;;;;;;;;21251453;27;20070;-55
2022/07/19 00:51:44;;;;;;;5.90;2.33;;;;;;;;;;21249838;27;20053;-56
2022/07/19 01:01:46;;;;;;;8.60;3.33;;;;;;;;;;21249046;27;20047;-60
2022/07/19 01:11:49;;;;;;;5.47;3.08;;;;;;;;;;21248732;27;20058;-55
2022/07/19 01:21:51;;;;;;;5.80;2.53;;;;;;;;;;21250162;27;20069;-60
2022/07/19 01:31:54;;;;;;;12.13;2.35;;;;;;;;;;21270297;27;20068;-56
2022/07/19 01:41:59;;;;;;;7.40;2.35;;;;;;;;;;21275269;27;20081;-55
2022/07/19 01:52:08;;;;;;;8.30;2.40;;;;;;;;;;21259279;27;20108;-58
2022/07/19 02:02:14;;;;;;;6.65;2.30;;;;;;;;;;21275853;27;20130;-56
2022/07/19 02:12:20;;;;;;;8.30;2.47;;;;;;;;;;21274211;27;20047;-58
2022/07/19 02:22:26;;;;;;;7.40;1.98;;;;;;;;;;21274293;27;20090;-64
2022/07/19 02:32:30;;;;;;;8.70;1.87;;;;;;;;;;21274651;27;20100;-61
2022/07/19 02:42:33;;;;;;;5.13;1.83;;;;;;;;;;21262439;27;20046;-56
2022/07/19 02:52:37;;;;;;;5.33;1.83;;;;;;;;;;21259434;27;20172;-54
2022/07/19 03:02:42;;;;;;;5.85;2.40;;;;;;;;;;21258022;27;20047;-59
2022/07/19 03:12:44;;;;;;;6.32;2.22;;;;;;;;;;21261082;27;20068;-55
2022/07/19 03:22:46;;;;;;;5.30;2.35;;;;;;;;;;21258177;27;20049;-57
2022/07/19 03:32:49;;;;;;;5.57;2.00;;;;;;;;;;21256827;27;20047;-63
2022/07/19 03:42:51;;;;;;;5.60;1.95;;;;;;;;;;21255090;27;20551;-59
2022/07/19 03:52:54;;;;;;;3.95;1.67;;;;;;;;;;21254128;27;20414;-57
2022/07/19 04:02:56;;;;;;;4.32;1.70;;;;;;;;;;21253114;27;20407;-55
2022/07/19 04:12:59;;;;;;;4.20;1.80;;;;;;;;;;21233635;27;20056;-55
2022/07/19 04:23:02;;;;;;;7.25;1.73;;;;;;;;;;21251995;27;20130;-55
2022/07/19 04:33:04;;;;;;;6.95;1.88;;;;;;;;;;21252293;27;20043;-55
2022/07/19 04:43:07;;;;;;;4.97;1.58;;;;;;;;;;21250089;27;20191;-58
2022/07/19 04:53:11;;;;;;;4.85;2.00;;;;;;;;;;21249862;27;20497;-56
2022/07/19 05:03:14;;;;;;;2.85;1.60;;;;;;;;;;21248955;27;20047;-67
2022/07/19 05:13:16;;;;;;;6.38;2.08;;;;;;;;;;21248013;27;20043;-57
2022/07/19 05:23:19;;;;;;;4.78;2.00;;;;;;;;;;21248010;27;20044;-67
2022/07/19 05:33:21;;;;;;;7.43;2.78;;;;;;;;;;21248065;28;20053;-65
2022/07/19 05:43:23;;;;;;;8.48;2.55;;;;;;;;;;21248244;28;20047;-66
2022/07/19 05:53:25;;;;;;;7.40;1.98;;;;;;;;;;21247459;28;20050;-57
2022/07/19 06:03:27;;;;;;;7.50;1.83;;;;;;;;;;21247166;28;20410;-59
2022/07/19 06:13:29;;;;;;;6.93;2.53;;;;;;;;;;21250742;27;20058;-63
2022/07/19 06:23:31;;;;;;;7.57;2.05;;;;;;;;;;21262625;27;20497;-56
2022/07/19 06:33:34;;;;;;;6.22;2.10;;;;;;;;;;21243063;27;20536;-58
2022/07/19 06:43:36;;;;;;;7.05;1.70;;;;;;;;;;21261320;27;20051;-64
2022/07/19 06:53:38;;;;;;;8.68;2.00;;;;;;;;;;21259818;27;20050;-61
2022/07/19 07:03:40;;;;;;;8.55;2.05;;;;;;;;;;21258737;27;20047;-63
2022/07/19 07:13:42;;;;;;;8.43;2.10;;;;;;;;;;21257527;27;20051;-62
2022/07/19 07:23:44;;;;;;;5.32;2.25;;;;;;;;;;21257124;27;20078;-69
2022/07/19 07:33:48;;;;;;;7.85;1.83;;;;;;;;;;21256155;27;20047;-59
2022/07/19 07:43:50;;;;;;;5.97;1.48;;;;;;;;;;21238824;27;20050;-61
2022/07/19 07:53:53;;;;;;;3.22;1.88;;;;;;;;;;21256422;27;20047;-55
2022/07/19 08:03:55;;;;;;;9.68;2.38;;;;;;;;;;21255250;27;20440;-60
2022/07/19 08:13:57;;;;;;;6.10;2.95;;;;;;;;;;21254183;27;20039;-56
2022/07/19 08:23:59;;;;;;;6.00;4.20;;;;;;;;;;21253176;27;20414;-66
2022/07/19 08:34:01;;;;;;;5.35;1.80;;;;;;;;;;21251351;27;20068;-69
2022/07/19 08:44:04;;;;;;;7.45;1.90;;;;;;;;;;21252108;27;20054;-62
2022/07/19 08:54:06;;;;;;;6.20;2.13;;;;;;;;;;21254487;27;20529;-70
2022/07/19 09:04:13;;;;;;;6.85;2.13;;;;;;;;;;21254671;27;20055;-60
2022/07/19 09:14:17;;;;;;;6.55;1.90;;;;;;;;;;21254688;27;20127;-56
2022/07/19 09:24:20;;;;;;;7.20;1.85;;;;;;;;;;21241385;27;20043;-63
2022/07/19 09:34:32;;;;;;;8.93;2.15;;;;;;;;;;21158088;28;20047;-61
2022/07/19 09:44:34;;;;;;;4.53;1.65;;;;;;;;;;21163001;28;20051;-66
2022/07/19 09:54:38;;;;;;;8.45;2.15;;;;;;;;;;21178336;28;20400;-67
2022/07/19 10:04:40;;;;;;;4.77;1.87;;;;;;;;;;21171630;28;20060;-58
2022/07/19 10:14:43;;;;;;;8.40;2.13;;;;;;;;;;21179543;28;20122;-55
2022/07/19 10:24:45;;;;;;;3.55;1.55;;;;;;;;;;21158672;28;20464;-63
2022/07/19 10:34:47;;;;;;;6.15;2.08;;;;;;;;;;21177389;28;20067;-58
2022/07/19 10:45:01;;;;;;;8.52;1.70;;;;;;;;;;21175253;28;20153;-70
2022/07/19 10:55:28;;;;;;;3.90;1.40;;;;;;;;;;21175288;28;20488;-60
2022/07/19 11:05:30;;;;;;;5.28;1.92;;;;;;;;;;21172401;28;20059;-62
2022/07/19 11:15:32;;;;;;;5.05;2.10;;;;;;;;;;21175024;28;20067;-58
2022/07/19 11:25:44;;;;;;;10.98;2.40;;;;;;;;;;21175154;28;20054;-56
2022/07/19 11:35:53;;;;;;;7.18;2.20;;;;;;;;;;21171590;28;20541;-54
2022/07/19 11:45:55;;;;;;;8.43;2.47;;;;;;;;;;21170824;28;20051;-56
2022/07/19 11:55:57;;;;;;;5.35;1.73;;;;;;;;;;21169817;28;20055;-60
2022/07/19 12:06:03;;;;;;;5.25;1.33;;;;;;;;;;21168143;28;20134;-55
2022/07/19 12:16:09;;;;;;;3.38;1.30;;;;;;;;;;21167206;28;20052;-56
2022/07/19 12:26:11;;;;;;;3.70;1.60;;;;;;;;;;21166461;28;20044;-57
2022/07/19 12:36:32;;;;;;;6.30;1.73;;;;;;;;;;21165618;28;20083;-56
2022/07/19 12:46:35;;;;;;;4.70;1.40;;;;;;;;;;21165903;28;20054;-63
2022/07/19 12:56:37;;;;;;;4.78;1.35;;;;;;;;;;21166101;28;20040;-58
2022/07/19 13:06:39;;;;;;;7.10;1.77;;;;;;;;;;21145490;28;20078;-53
2022/07/19 13:16:42;;;;;;;5.15;1.20;;;;;;;;;;21162659;28;20065;-56
2022/07/19 13:26:44;;;;;;;2.83;0.82;;;;;;;;;;21161981;28;20408;-59
2022/07/19 13:36:46;;;;;;;3.67;1.08;;;;;;;;;;21162833;28;20142;-60
2022/07/19 13:46:48;;;;;;;3.28;1.20;;;;;;;;;;21162388;28;20047;-56
2022/07/19 13:56:50;;;;;;;6.18;1.00;;;;;;;;;;21161667;28;20105;-53
2022/07/19 14:06:53;;;;;;;10.65;1.00;;;;;;;;;;21160544;28;20059;-56
2022/07/19 14:16:56;;;;;;;6.68;1.65;;;;;;;;;;21160759;28;20076;-58
2022/07/19 14:26:58;;;;;;;4.78;0.88;;;;;;;;;;21161798;28;20052;-56
2022/07/19 14:37:00;;;;;;;5.93;0.90;;;;;;;;;;21169140;28;20048;-61
2022/07/19 14:47:02;;;;;;;3.00;0.85;;;;;;;;;;21173719;28;20056;-66
2022/07/19 14:57:04;;;;;;;5.07;1.20;;;;;;;;;;21173727;28;20054;-59
2022/07/19 15:07:10;;;;;;;5.32;1.52;;;;;;;;;;21172726;28;20135;-56
2022/07/19 15:17:12;;;;;;;9.10;1.00;;;;;;;;;;21155093;28;20047;-56
2022/07/19 15:27:14;;;;;;;6.45;1.25;;;;;;;;;;21172044;28;20051;-55
2022/07/19 15:37:16;;;;;;;4.57;1.40;;;;;;;;;;21171498;28;20048;-54
2022/07/19 15:47:18;;;;;;;3.88;0.80;;;;;;;;;;21169224;28;20048;-64
2022/07/19 15:57:21;;;;;;;6.15;1.00;;;;;;;;;;21150259;28;20047;-61
2022/07/19 16:07:23;;;;;;;3.75;1.92;;;;;;;;;;21150853;28;20456;-55
2022/07/19 16:17:25;;;;;;;3.20;1.33;;;;;;;;;;21167957;28;20065;-65
2022/07/19 16:27:27;;;;;;;5.25;1.92;;;;;;;;;;21167885;28;20072;-56
2022/07/19 16:37:29;;;;;;;4.18;1.45;;;;;;;;;;21167896;28;20048;-56
2022/07/19 16:47:31;;;;;;;2.85;1.30;;;;;;;;;;21146941;28;20475;-55
2022/07/19 16:57:33;;;;;;;2.38;0.77;;;;;;;;;;21162830;28;20051;-60
2022/07/19 17:07:35;;;;;;;2.45;1.00;;;;;;;;;;21163768;28;20047;-56
2022/07/19 17:17:37;;;;;;;4.78;1.17;;;;;;;;;;21162814;28;20100;-58
2022/07/19 17:27:40;;;;;;;4.20;0.80;;;;;;;;;;21162892;28;20070;-55
2022/07/19 17:37:42;;;;;;;4.28;2.72;;;;;;;;;;21163888;28;20044;-58
2022/07/19 17:47:44;;;;;;;4.32;0.98;;;;;;;;;;21161958;28;20072;-60
2022/07/19 17:57:46;;;;;;;1.52;0.63;;;;;;;;;;21160993;28;20416;-69
2022/07/19 18:07:48;;;;;;;1.92;0.32;;;;;;;;;;21193770;27;20051;-56
2022/07/19 18:17:50;;;;;;;1.63;0.60;;;;;;;;;;21257749;27;20043;-54
2022/07/19 18:27:52;;;;;;;3.10;1.33;;;;;;;;;;21190842;27;20054;-55
2022/07/19 18:37:54;;;;;;;2.08;0.57;;;;;;;;;;21197877;27;20471;-57
2022/07/19 18:47:56;;;;;;;1.17;0.57;;;;;;;;;;21260551;27;20055;-58
2022/07/19 18:57:58;;;;;;;2.85;1.58;;;;;;;;;;21261434;27;20058;-56
2022/07/19 19:08:01;;;;;;;2.33;0.90;;;;;;;;;;21184179;27;20059;-56
2022/07/19 19:18:03;;;;;;;2.65;0.60;;;;;;;;;;21172334;28;20050;-59
2022/07/19 19:28:05;;;;;;;1.77;0.80;;;;;;;;;;21178098;27;20051;-56
2022/07/19 19:38:07;;;;;;;2.85;0.60;;;;;;;;;;21234823;27;20181;-57
2022/07/19 19:48:11;;;;;;;4.93;1.67;;;;;;;;;;21255760;27;20054;-62
2022/07/19 19:58:13;;;;;;;3.10;1.30;;;;;;;;;;21258844;27;20075;-55
2022/07/19 20:08:15;;;;;;;3.30;1.17;;;;;;;;;;21253203;27;20058;-59
2022/07/19 20:18:17;;;;;;;1.83;1.00;;;;;;;;;;21253821;27;20054;-61
2022/07/19 20:28:19;;;;;;;4.07;1.92;;;;;;;;;;21251768;27;20139;-55
2022/07/19 20:38:21;;;;;;;2.47;1.10;;;;;;;;;;21251140;27;20043;-53
2022/07/19 20:48:24;;;;;;;1.42;0.93;;;;;;;;;;21250879;27;20047;-55
2022/07/19 20:58:26;;;;;;;2.60;0.80;;;;;;;;;;21250666;27;20122;-55
2022/07/19 21:08:28;;;;;;;5.15;1.30;;;;;;;;;;21249058;27;20058;-54
2022/07/19 21:18:31;;;;;;;3.92;1.15;;;;;;;;;;21249311;27;20054;-56
2022/07/19 21:28:34;;;;;;;8.32;1.75;;;;;;;;;;21249361;27;20070;-60
2022/07/19 21:38:36;;;;;;;2.88;1.27;;;;;;;;;;21230102;28;20050;-55
2022/07/19 21:48:39;;;;;;;3.80;1.10;;;;;;;;;;21260636;27;20051;-56
2022/07/19 21:58:41;;;;;;;2.85;0.80;;;;;;;;;;21266199;27;20475;-61
2022/07/19 22:08:43;;;;;;;3.42;1.33;;;;;;;;;;21245137;27;20059;-57
2022/07/19 22:18:45;;;;;;;2.08;1.00;;;;;;;;;;21263776;27;20042;-62
2022/07/19 22:28:48;;;;;;;5.70;1.30;;;;;;;;;;21262130;27;20116;-59
2022/07/19 22:38:50;;;;;;;2.95;0.90;;;;;;;;;;21262492;27;20039;-54
2022/07/19 22:48:52;;;;;;;2.65;1.00;;;;;;;;;;21261565;27;20406;-62
2022/07/19 22:58:54;;;;;;;3.13;0.95;;;;;;;;;;21259427;27;20121;-61
2022/07/19 23:08:56;;;;;;;3.92;1.83;;;;;;;;;;21259319;27;20119;-53
2022/07/19 23:18:58;;;;;;;2.80;1.20;;;;;;;;;;21267199;27;20078;-72
2022/07/19 23:29:00;;;;;;;3.65;1.20;;;;;;;;;;21264896;27;20090;-55
2022/07/19 23:39:03;;;;;;;5.88;1.30;;;;;;;;;;21259009;27;20043;-68
2022/07/19 23:49:06;;;;;;;3.40;1.60;;;;;;;;;;21256955;27;20047;-62
2022/07/19 23:59:08;;;;;;;4.93;1.27;;;;;;;;;;21256363;27;20047;-60
